sensor_id;sensor_type;location;lat;lon;timestamp;pressure;altitude;pressure_sealevel;temperature;humidity
55675;BME280;41562;44.330;23.802;2023-04-05T00:01:54;99843.16;;;4.51;100.00
55675;BME280;41562;44.330;23.802;2023-04-05T00:04:22;99834.13;;;4.47;100.00
55675;BME280;41562;44.330;23.802;2023-04-05T00:06:49;99835.97;;;4.46;100.00
55675;BME280;41562;44.330;23.802;2023-04-05T00:09:18;99835.66;;;4.42;100.00
55675;BME280;41562;44.330;23.802;2023-04-05T00:11:46;99843.41;;;4.49;100.00
55675;BME280;41562;44.330;23.802;2023-04-05T00:14:14;99836.84;;;4.52;100.00
55675;BME280;41562;44.330;23.802;2023-04-05T00:16:41;99831.16;;;4.60;100.00
55675;BME280;41562;44.330;23.802;2023-04-05T00:19:09;99826.69;;;4.82;100.00
55675;BME280;41562;44.330;23.802;2023-04-05T00:21:37;99821.44;;;4.65;100.00
55675;BME280;41562;44.330;23.802;2023-04-05T00:24:05;99815.81;;;4.45;100.00
55675;BME280;41562;44.330;23.802;2023-04-05T00:26:32;99818.53;;;4.50;100.00
55675;BME280;41562;44.330;23.802;2023-04-05T00:28:59;99823.13;;;4.55;100.00
55675;BME280;41562;44.330;23.802;2023-04-05T00:31:28;99821.34;;;4.60;100.00
55675;BME280;41562;44.330;23.802;2023-04-05T00:33:55;99820.81;;;4.41;100.00
55675;BME280;41562;44.330;23.802;2023-04-05T00:36:22;99814.84;;;4.51;100.00
55675;BME280;41562;44.330;23.802;2023-04-05T00:38:50;99817.34;;;4.41;100.00
55675;BME280;41562;44.330;23.802;2023-04-05T00:41:17;99816.38;;;4.47;100.00
55675;BME280;41562;44.330;23.802;2023-04-05T00:43:44;99818.16;;;4.41;100.00
55675;BME280;41562;44.330;23.802;2023-04-05T00:46:11;99812.94;;;4.47;100.00
55675;BME280;41562;44.330;23.802;2023-04-05T00:48:39;99812.38;;;4.44;100.00
55675;BME280;41562;44.330;23.802;2023-04-05T00:51:09;99805.47;;;4.43;100.00
55675;BME280;41562;44.330;23.802;2023-04-05T00:53:37;99807.81;;;4.40;100.00
55675;BME280;41562;44.330;23.802;2023-04-05T00:56:04;99806.44;;;4.37;100.00
55675;BME280;41562;44.330;23.802;2023-04-05T00:58:32;99809.66;;;4.39;100.00
55675;BME280;41562;44.330;23.802;2023-04-05T01:01:01;99808.59;;;4.40;100.00
55675;BME280;41562;44.330;23.802;2023-04-05T01:03:31;99802.19;;;4.36;100.00
55675;BME280;41562;44.330;23.802;2023-04-05T01:08:53;99817.31;;;4.24;100.00
55675;BME280;41562;44.330;23.802;2023-04-05T01:11:22;99814.78;;;4.29;100.00
55675;BME280;41562;44.330;23.802;2023-04-05T01:13:50;99814.38;;;4.37;100.00
55675;BME280;41562;44.330;23.802;2023-04-05T01:16:17;99810.38;;;4.35;100.00
55675;BME280;41562;44.330;23.802;2023-04-05T01:18:44;99810.59;;;4.50;100.00
55675;BME280;41562;44.330;23.802;2023-04-05T01:26:45;99802.28;;;4.41;100.00
55675;BME280;41562;44.330;23.802;2023-04-05T01:35:20;99802.75;;;4.38;100.00
55675;BME280;41562;44.330;23.802;2023-04-05T01:38:00;99802.59;;;4.28;100.00
55675;BME280;41562;44.330;23.802;2023-04-05T01:40:30;99802.19;;;4.36;100.00
55675;BME280;41562;44.330;23.802;2023-04-05T01:43:01;99805.25;;;4.28;100.00
55675;BME280;41562;44.330;23.802;2023-04-05T01:45:28;99801.78;;;4.28;100.00
55675;BME280;41562;44.330;23.802;2023-04-05T01:47:55;99790.41;;;4.27;100.00
55675;BME280;41562;44.330;23.802;2023-04-05T01:50:23;99792.88;;;4.34;100.00
55675;BME280;41562;44.330;23.802;2023-04-05T01:52:50;99796.72;;;4.26;100.00
55675;BME280;41562;44.330;23.802;2023-04-05T01:55:17;99796.41;;;4.23;100.00
55675;BME280;41562;44.330;23.802;2023-04-05T01:57:44;99794.88;;;4.27;100.00
55675;BME280;41562;44.330;23.802;2023-04-05T02:00:12;99784.16;;;4.33;100.00
55675;BME280;41562;44.330;23.802;2023-04-05T02:02:39;99798.72;;;4.19;100.00
55675;BME280;41562;44.330;23.802;2023-04-05T02:05:07;99785.25;;;4.21;100.00
55675;BME280;41562;44.330;23.802;2023-04-05T02:07:35;99783.03;;;4.29;100.00
55675;BME280;41562;44.330;23.802;2023-04-05T02:10:02;99789.38;;;4.28;100.00
55675;BME280;41562;44.330;23.802;2023-04-05T02:12:30;99791.44;;;4.26;100.00
55675;BME280;41562;44.330;23.802;2023-04-05T02:14:57;99786.88;;;4.22;100.00
55675;BME280;41562;44.330;23.802;2023-04-05T02:17:26;99786.22;;;4.31;100.00
55675;BME280;41562;44.330;23.802;2023-04-05T02:19:53;99789.66;;;4.32;100.00
55675;BME280;41562;44.330;23.802;2023-04-05T02:22:20;99793.44;;;4.19;100.00
55675;BME280;41562;44.330;23.802;2023-04-05T02:24:48;99791.03;;;4.34;100.00
55675;BME280;41562;44.330;23.802;2023-04-05T02:27:15;99784.69;;;4.19;100.00
55675;BME280;41562;44.330;23.802;2023-04-05T02:29:42;99795.53;;;4.17;100.00
55675;BME280;41562;44.330;23.802;2023-04-05T02:32:09;99794.25;;;4.20;100.00
55675;BME280;41562;44.330;23.802;2023-04-05T02:34:37;99794.31;;;4.08;100.00
55675;BME280;41562;44.330;23.802;2023-04-05T02:37:04;99787.84;;;4.16;100.00
55675;BME280;41562;44.330;23.802;2023-04-05T02:39:32;99790.72;;;4.14;100.00
55675;BME280;41562;44.330;23.802;2023-04-05T02:41:59;99788.31;;;4.29;100.00
55675;BME280;41562;44.330;23.802;2023-04-05T02:44:28;99791.59;;;4.36;100.00
55675;BME280;41562;44.330;23.802;2023-04-05T02:46:55;99784.00;;;4.23;100.00
55675;BME280;41562;44.330;23.802;2023-04-05T02:49:23;99792.47;;;4.25;100.00
55675;BME280;41562;44.330;23.802;2023-04-05T02:51:50;99784.94;;;4.00;100.00
55675;BME280;41562;44.330;23.802;2023-04-05T02:54:18;99787.81;;;3.99;100.00
55675;BME280;41562;44.330;23.802;2023-04-05T02:56:45;99791.81;;;4.18;100.00
55675;BME280;41562;44.330;23.802;2023-04-05T02:59:13;99791.38;;;4.21;100.00
55675;BME280;41562;44.330;23.802;2023-04-05T03:01:41;99797.22;;;4.23;100.00
55675;BME280;41562;44.330;23.802;2023-04-05T03:04:09;99791.66;;;4.08;100.00
55675;BME280;41562;44.330;23.802;2023-04-05T03:06:37;99800.81;;;4.34;100.00
55675;BME280;41562;44.330;23.802;2023-04-05T03:09:05;99798.59;;;4.42;100.00
55675;BME280;41562;44.330;23.802;2023-04-05T03:11:33;99791.69;;;4.41;100.00
55675;BME280;41562;44.330;23.802;2023-04-05T03:14:00;99801.72;;;4.39;100.00
55675;BME280;41562;44.330;23.802;2023-04-05T03:16:27;99799.88;;;4.23;100.00
55675;BME280;41562;44.330;23.802;2023-04-05T03:18:54;99803.94;;;4.14;100.00
55675;BME280;41562;44.330;23.802;2023-04-05T03:21:22;99796.97;;;4.41;100.00
55675;BME280;41562;44.330;23.802;2023-04-05T03:23:49;99804.28;;;4.34;100.00
55675;BME280;41562;44.330;23.802;2023-04-05T03:26:16;99798.97;;;4.34;100.00
55675;BME280;41562;44.330;23.802;2023-04-05T03:28:43;99809.66;;;4.39;100.00
55675;BME280;41562;44.330;23.802;2023-04-05T03:31:12;99806.72;;;8.49;98.79
55675;BME280;41562;44.330;23.802;2023-04-05T03:33:40;99815.56;;;9.44;89.52
55675;BME280;41562;44.330;23.802;2023-04-05T03:36:08;99817.94;;;9.46;90.08
55675;BME280;41562;44.330;23.802;2023-04-05T03:38:36;99816.66;;;9.92;80.89
55675;BME280;41562;44.330;23.802;2023-04-05T03:41:03;99814.13;;;9.67;81.09
55675;BME280;41562;44.330;23.802;2023-04-05T03:43:31;99818.53;;;9.87;83.48
55675;BME280;41562;44.330;23.802;2023-04-05T03:45:58;99818.03;;;10.29;83.41
55675;BME280;41562;44.330;23.802;2023-04-05T03:48:25;99827.72;;;8.96;79.24
55675;BME280;41562;44.330;23.802;2023-04-05T03:50:53;99818.06;;;7.06;87.16
55675;BME280;41562;44.330;23.802;2023-04-05T03:53:20;99812.50;;;6.02;95.08
55675;BME280;41562;44.330;23.802;2023-04-05T03:55:48;99821.38;;;8.52;92.04
55675;BME280;41562;44.330;23.802;2023-04-05T03:58:25;99820.44;;;9.81;83.39
55675;BME280;41562;44.330;23.802;2023-04-05T04:00:52;99822.06;;;9.23;82.29
55675;BME280;41562;44.330;23.802;2023-04-05T04:03:20;99817.66;;;8.37;81.16
55675;BME280;41562;44.330;23.802;2023-04-05T04:05:47;99824.00;;;6.76;91.13
55675;BME280;41562;44.330;23.802;2023-04-05T04:08:15;99816.88;;;6.13;97.87
55675;BME280;41562;44.330;23.802;2023-04-05T04:10:47;99825.47;;;5.50;97.71
55675;BME280;41562;44.330;23.802;2023-04-05T04:13:15;99818.31;;;5.29;100.00
55675;BME280;41562;44.330;23.802;2023-04-05T04:15:42;99818.06;;;5.08;100.00
55675;BME280;41562;44.330;23.802;2023-04-05T04:18:10;99813.63;;;4.92;100.00
55675;BME280;41562;44.330;23.802;2023-04-05T04:20:38;99813.78;;;4.85;100.00
55675;BME280;41562;44.330;23.802;2023-04-05T04:23:07;99812.00;;;4.74;100.00
55675;BME280;41562;44.330;23.802;2023-04-05T04:25:36;99816.59;;;4.79;100.00
55675;BME280;41562;44.330;23.802;2023-04-05T04:28:04;99815.41;;;4.87;100.00
55675;BME280;41562;44.330;23.802;2023-04-05T04:30:39;99815.66;;;5.07;100.00
55675;BME280;41562;44.330;23.802;2023-04-05T04:33:07;99814.59;;;5.08;100.00
55675;BME280;41562;44.330;23.802;2023-04-05T04:35:35;99810.66;;;5.10;100.00
55675;BME280;41562;44.330;23.802;2023-04-05T04:38:04;99809.41;;;4.96;100.00
55675;BME280;41562;44.330;23.802;2023-04-05T04:40:34;99821.47;;;4.87;100.00
55675;BME280;41562;44.330;23.802;2023-04-05T04:43:02;99821.91;;;5.01;100.00
55675;BME280;41562;44.330;23.802;2023-04-05T04:45:29;99815.16;;;5.32;100.00
55675;BME280;41562;44.330;23.802;2023-04-05T04:47:57;99822.03;;;5.49;99.99
55675;BME280;41562;44.330;23.802;2023-04-05T04:50:24;99823.19;;;5.58;100.00
55675;BME280;41562;44.330;23.802;2023-04-05T04:52:51;99824.44;;;5.99;100.00
55675;BME280;41562;44.330;23.802;2023-04-05T04:55:19;99822.84;;;5.98;98.89
55675;BME280;41562;44.330;23.802;2023-04-05T04:57:50;99818.19;;;5.62;98.22
55675;BME280;41562;44.330;23.802;2023-04-05T05:00:18;99816.59;;;5.39;100.00
55675;BME280;41562;44.330;23.802;2023-04-05T05:02:47;99829.28;;;5.59;99.73
55675;BME280;41562;44.330;23.802;2023-04-05T05:05:15;99820.91;;;5.45;98.04
55675;BME280;41562;44.330;23.802;2023-04-05T05:07:43;99822.38;;;5.58;100.00
55675;BME280;41562;44.330;23.802;2023-04-05T05:10:10;99818.56;;;5.49;99.28
55675;BME280;41562;44.330;23.802;2023-04-05T05:12:37;99825.97;;;5.47;97.47
55675;BME280;41562;44.330;23.802;2023-04-05T05:15:05;99823.41;;;5.57;97.10
55675;BME280;41562;44.330;23.802;2023-04-05T05:17:33;99827.38;;;5.54;97.90
55675;BME280;41562;44.330;23.802;2023-04-05T05:20:01;99827.06;;;5.73;100.00
55675;BME280;41562;44.330;23.802;2023-04-05T05:22:29;99826.66;;;5.86;99.85
55675;BME280;41562;44.330;23.802;2023-04-05T05:24:59;99826.38;;;6.09;98.23
55675;BME280;41562;44.330;23.802;2023-04-05T05:27:29;99836.34;;;6.24;94.73
55675;BME280;41562;44.330;23.802;2023-04-05T05:29:57;99826.50;;;6.19;95.11
55675;BME280;41562;44.330;23.802;2023-04-05T05:32:24;99829.84;;;6.41;96.92
55675;BME280;41562;44.330;23.802;2023-04-05T05:34:52;99842.03;;;6.37;95.39
55675;BME280;41562;44.330;23.802;2023-04-05T05:37:21;99839.97;;;6.13;94.26
55675;BME280;41562;44.330;23.802;2023-04-05T05:39:55;99838.97;;;6.19;93.40
55675;BME280;41562;44.330;23.802;2023-04-05T05:42:22;99831.06;;;6.61;99.21
55675;BME280;41562;44.330;23.802;2023-04-05T05:44:49;99827.22;;;6.15;93.89
55675;BME280;41562;44.330;23.802;2023-04-05T05:47:17;99838.94;;;5.70;94.12
55675;BME280;41562;44.330;23.802;2023-04-05T05:49:44;99836.97;;;6.04;94.58
55675;BME280;41562;44.330;23.802;2023-04-05T05:52:11;99832.78;;;6.45;100.00
55675;BME280;41562;44.330;23.802;2023-04-05T05:54:39;99843.25;;;6.94;92.74
55675;BME280;41562;44.330;23.802;2023-04-05T05:57:07;99843.38;;;6.77;90.83
55675;BME280;41562;44.330;23.802;2023-04-05T05:59:35;99847.81;;;7.55;87.56
55675;BME280;41562;44.330;23.802;2023-04-05T06:02:03;99839.75;;;7.40;90.16
55675;BME280;41562;44.330;23.802;2023-04-05T06:04:30;99841.78;;;7.18;89.45
55675;BME280;41562;44.330;23.802;2023-04-05T06:06:58;99846.66;;;7.36;88.76
55675;BME280;41562;44.330;23.802;2023-04-05T06:09:26;99844.19;;;7.19;88.94
55675;BME280;41562;44.330;23.802;2023-04-05T06:11:54;99843.53;;;7.02;90.57
55675;BME280;41562;44.330;23.802;2023-04-05T06:14:41;99851.38;;;7.19;90.77
55675;BME280;41562;44.330;23.802;2023-04-05T06:17:08;99859.38;;;7.24;87.73
55675;BME280;41562;44.330;23.802;2023-04-05T06:19:36;99853.91;;;6.62;89.62
55675;BME280;41562;44.330;23.802;2023-04-05T06:22:04;99849.81;;;6.81;91.51
55675;BME280;41562;44.330;23.802;2023-04-05T06:24:31;99861.94;;;7.61;86.15
55675;BME280;41562;44.330;23.802;2023-04-05T06:26:59;99861.41;;;7.07;87.16
55675;BME280;41562;44.330;23.802;2023-04-05T06:29:27;99860.03;;;6.62;88.33
55675;BME280;41562;44.330;23.802;2023-04-05T06:31:54;99867.66;;;6.91;93.33
55675;BME280;41562;44.330;23.802;2023-04-05T06:34:22;99869.50;;;7.27;92.22
55675;BME280;41562;44.330;23.802;2023-04-05T06:36:49;99872.91;;;7.17;88.13
55675;BME280;41562;44.330;23.802;2023-04-05T06:39:16;99880.00;;;7.02;89.59
55675;BME280;41562;44.330;23.802;2023-04-05T06:41:44;99878.44;;;7.11;87.52
55675;BME280;41562;44.330;23.802;2023-04-05T06:44:11;99879.41;;;6.95;88.75
55675;BME280;41562;44.330;23.802;2023-04-05T06:46:38;99882.34;;;6.61;90.18
55675;BME280;41562;44.330;23.802;2023-04-05T06:49:06;99872.75;;;6.60;88.93
55675;BME280;41562;44.330;23.802;2023-04-05T06:51:33;99874.72;;;6.38;87.67
55675;BME280;41562;44.330;23.802;2023-04-05T06:54:01;99880.91;;;6.85;93.05
55675;BME280;41562;44.330;23.802;2023-04-05T06:56:29;99881.03;;;6.64;89.41
55675;BME280;41562;44.330;23.802;2023-04-05T06:58:57;99887.63;;;6.93;90.12
55675;BME280;41562;44.330;23.802;2023-04-05T07:01:24;99891.88;;;7.36;87.76
55675;BME280;41562;44.330;23.802;2023-04-05T07:03:52;99895.13;;;7.48;91.23
55675;BME280;41562;44.330;23.802;2023-04-05T07:06:19;99900.53;;;7.16;87.51
55675;BME280;41562;44.330;23.802;2023-04-05T07:08:47;99903.50;;;7.20;86.12
55675;BME280;41562;44.330;23.802;2023-04-05T07:11:14;99898.69;;;6.80;87.34
55675;BME280;41562;44.330;23.802;2023-04-05T07:13:41;99901.91;;;7.24;89.08
55675;BME280;41562;44.330;23.802;2023-04-05T07:16:09;99910.41;;;6.84;87.40
55675;BME280;41562;44.330;23.802;2023-04-05T07:18:36;99901.59;;;6.46;89.27
55675;BME280;41562;44.330;23.802;2023-04-05T07:21:04;99908.69;;;6.68;90.74
55675;BME280;41562;44.330;23.802;2023-04-05T07:23:31;99897.03;;;7.11;96.94
55675;BME280;41562;44.330;23.802;2023-04-05T07:26:02;99906.84;;;7.05;88.06
55675;BME280;41562;44.330;23.802;2023-04-05T07:28:33;99904.47;;;6.72;88.04
55675;BME280;41562;44.330;23.802;2023-04-05T07:31:02;99913.25;;;6.72;90.66
55675;BME280;41562;44.330;23.802;2023-04-05T07:33:29;99910.69;;;6.82;94.52
55675;BME280;41562;44.330;23.802;2023-04-05T07:35:57;99915.91;;;6.72;90.69
55675;BME280;41562;44.330;23.802;2023-04-05T07:38:25;99915.34;;;6.70;89.05
55675;BME280;41562;44.330;23.802;2023-04-05T07:40:53;99910.28;;;6.37;90.14
55675;BME280;41562;44.330;23.802;2023-04-05T07:43:20;99912.16;;;7.05;100.00
55675;BME280;41562;44.330;23.802;2023-04-05T07:45:47;99911.78;;;6.92;88.15
55675;BME280;41562;44.330;23.802;2023-04-05T07:48:15;99921.38;;;6.61;90.07
55675;BME280;41562;44.330;23.802;2023-04-05T07:50:42;99926.28;;;6.74;88.99
55675;BME280;41562;44.330;23.802;2023-04-05T07:53:10;99919.72;;;6.86;95.75
55675;BME280;41562;44.330;23.802;2023-04-05T07:55:37;99923.19;;;6.55;91.07
55675;BME280;41562;44.330;23.802;2023-04-05T07:58:05;99931.72;;;6.57;88.37
55675;BME280;41562;44.330;23.802;2023-04-05T08:00:33;99919.59;;;6.71;92.74
55675;BME280;41562;44.330;23.802;2023-04-05T08:03:00;99924.47;;;6.79;91.98
55675;BME280;41562;44.330;23.802;2023-04-05T08:05:29;99930.72;;;6.63;89.20
55675;BME280;41562;44.330;23.802;2023-04-05T08:07:56;99917.03;;;6.81;89.88
55675;BME280;41562;44.330;23.802;2023-04-05T08:10:27;99924.25;;;6.86;92.61
55675;BME280;41562;44.330;23.802;2023-04-05T08:12:55;99922.25;;;7.03;89.95
55675;BME280;41562;44.330;23.802;2023-04-05T08:15:23;99917.84;;;7.19;89.65
55675;BME280;41562;44.330;23.802;2023-04-05T08:17:50;99930.22;;;7.03;87.96
55675;BME280;41562;44.330;23.802;2023-04-05T08:20:17;99929.59;;;6.59;88.41
55675;BME280;41562;44.330;23.802;2023-04-05T08:22:45;99928.47;;;7.19;92.48
55675;BME280;41562;44.330;23.802;2023-04-05T08:25:12;99933.66;;;6.99;88.63
55675;BME280;41562;44.330;23.802;2023-04-05T08:27:40;99929.56;;;7.23;85.79
55675;BME280;41562;44.330;23.802;2023-04-05T08:30:08;99927.91;;;7.12;86.36
55675;BME280;41562;44.330;23.802;2023-04-05T08:32:36;99933.31;;;7.27;88.08
55675;BME280;41562;44.330;23.802;2023-04-05T08:35:04;99923.28;;;7.39;87.16
55675;BME280;41562;44.330;23.802;2023-04-05T08:37:34;99930.88;;;7.20;86.47
55675;BME280;41562;44.330;23.802;2023-04-05T08:40:03;99933.94;;;7.39;86.91
55675;BME280;41562;44.330;23.802;2023-04-05T08:42:41;99931.75;;;7.83;89.63
55675;BME280;41562;44.330;23.802;2023-04-05T08:45:13;99929.09;;;7.36;86.86
55675;BME280;41562;44.330;23.802;2023-04-05T08:47:41;99943.00;;;7.48;85.77
55675;BME280;41562;44.330;23.802;2023-04-05T08:50:10;99941.38;;;7.42;84.50
55675;BME280;41562;44.330;23.802;2023-04-05T08:52:38;99941.09;;;7.39;89.29
55675;BME280;41562;44.330;23.802;2023-04-05T08:55:07;99946.25;;;7.13;87.14
55675;BME280;41562;44.330;23.802;2023-04-05T08:57:38;99946.09;;;7.30;88.35
55675;BME280;41562;44.330;23.802;2023-04-05T09:00:07;99949.88;;;7.39;87.69
55675;BME280;41562;44.330;23.802;2023-04-05T09:02:36;99952.03;;;7.47;89.71
55675;BME280;41562;44.330;23.802;2023-04-05T09:05:08;99950.03;;;7.70;86.69
55675;BME280;41562;44.330;23.802;2023-04-05T09:07:37;99950.91;;;7.33;86.90
55675;BME280;41562;44.330;23.802;2023-04-05T09:10:05;99950.50;;;7.56;84.38
55675;BME280;41562;44.330;23.802;2023-04-05T09:12:34;99952.13;;;7.62;87.75
55675;BME280;41562;44.330;23.802;2023-04-05T09:15:02;99953.59;;;7.90;87.22
55675;BME280;41562;44.330;23.802;2023-04-05T09:17:29;99958.63;;;7.82;85.96
55675;BME280;41562;44.330;23.802;2023-04-05T09:19:58;99952.03;;;7.94;86.72
55675;BME280;41562;44.330;23.802;2023-04-05T09:22:28;99959.78;;;8.11;93.27
55675;BME280;41562;44.330;23.802;2023-04-05T09:24:56;99967.47;;;7.97;85.11
55675;BME280;41562;44.330;23.802;2023-04-05T09:27:24;99965.31;;;7.94;84.73
55675;BME280;41562;44.330;23.802;2023-04-05T09:29:51;99962.91;;;7.88;84.85
55675;BME280;41562;44.330;23.802;2023-04-05T09:32:18;99958.16;;;7.95;92.35
55675;BME280;41562;44.330;23.802;2023-04-05T09:34:46;99960.19;;;9.46;77.82
55675;BME280;41562;44.330;23.802;2023-04-05T09:37:18;99963.97;;;8.69;80.28
55675;BME280;41562;44.330;23.802;2023-04-05T09:39:47;99966.56;;;8.39;82.97
55675;BME280;41562;44.330;23.802;2023-04-05T09:42:17;99961.00;;;8.56;82.40
55675;BME280;41562;44.330;23.802;2023-04-05T09:47:26;99962.31;;;8.38;83.73
55675;BME280;41562;44.330;23.802;2023-04-05T09:49:54;99959.94;;;8.57;83.40
55675;BME280;41562;44.330;23.802;2023-04-05T09:52:27;99954.59;;;8.46;83.90
55675;BME280;41562;44.330;23.802;2023-04-05T09:55:00;99951.94;;;8.62;82.21
55675;BME280;41562;44.330;23.802;2023-04-05T09:57:33;99958.34;;;8.56;83.01
55675;BME280;41562;44.330;23.802;2023-04-05T10:00:01;99957.44;;;8.25;83.90
55675;BME280;41562;44.330;23.802;2023-04-05T10:02:38;99951.31;;;8.19;83.51
55675;BME280;41562;44.330;23.802;2023-04-05T10:05:08;99959.66;;;8.48;83.38
55675;BME280;41562;44.330;23.802;2023-04-05T10:07:36;99956.41;;;8.31;83.96
55675;BME280;41562;44.330;23.802;2023-04-05T10:10:05;99961.75;;;8.31;83.01
55675;BME280;41562;44.330;23.802;2023-04-05T10:12:37;99963.00;;;8.18;83.28
55675;BME280;41562;44.330;23.802;2023-04-05T10:15:05;99953.97;;;8.19;83.77
55675;BME280;41562;44.330;23.802;2023-04-05T10:17:38;99961.94;;;8.14;83.81
55675;BME280;41562;44.330;23.802;2023-04-05T10:20:19;99955.81;;;8.08;83.73
55675;BME280;41562;44.330;23.802;2023-04-05T10:28:42;99969.38;;;8.07;84.02
55675;BME280;41562;44.330;23.802;2023-04-05T10:34:09;99968.88;;;8.20;83.05
55675;BME280;41562;44.330;23.802;2023-04-05T10:37:01;99971.47;;;8.05;84.39
55675;BME280;41562;44.330;23.802;2023-04-05T10:39:34;99970.50;;;8.26;82.11
55675;BME280;41562;44.330;23.802;2023-04-05T10:44:50;99971.13;;;13.39;75.30
55675;BME280;41562;44.330;23.802;2023-04-05T10:47:18;99979.16;;;13.06;67.81
55675;BME280;41562;44.330;23.802;2023-04-05T10:49:51;99976.09;;;12.80;64.58
55675;BME280;41562;44.330;23.802;2023-04-05T10:52:20;99980.75;;;12.56;66.20
55675;BME280;41562;44.330;23.802;2023-04-05T10:54:48;99988.47;;;12.20;66.63
55675;BME280;41562;44.330;23.802;2023-04-05T10:57:18;99978.22;;;13.16;66.42
55675;BME280;41562;44.330;23.802;2023-04-05T10:59:47;99985.47;;;12.45;65.66
55675;BME280;41562;44.330;23.802;2023-04-05T11:02:17;99979.94;;;12.56;66.42
55675;BME280;41562;44.330;23.802;2023-04-05T11:04:45;99985.50;;;12.78;63.65
55675;BME280;41562;44.330;23.802;2023-04-05T11:07:17;99978.09;;;10.69;70.37
55675;BME280;41562;44.330;23.802;2023-04-05T11:10:02;99972.66;;;9.71;74.18
55675;BME280;41562;44.330;23.802;2023-04-05T11:21:06;99977.78;;;8.66;78.61
55675;BME280;41562;44.330;23.802;2023-04-05T11:26:31;99968.75;;;8.82;82.53
55675;BME280;41562;44.330;23.802;2023-04-05T11:28:59;99964.75;;;8.60;79.34
55675;BME280;41562;44.330;23.802;2023-04-05T11:31:26;99967.44;;;8.70;84.32
55675;BME280;41562;44.330;23.802;2023-04-05T11:34:04;99962.38;;;8.88;82.94
55675;BME280;41562;44.330;23.802;2023-04-05T11:41:46;99970.63;;;9.07;87.99
55675;BME280;41562;44.330;23.802;2023-04-05T11:44:14;99963.16;;;9.19;90.46
55675;BME280;41562;44.330;23.802;2023-04-05T11:46:42;99969.31;;;8.95;82.45
55675;BME280;41562;44.330;23.802;2023-04-05T11:49:09;99969.84;;;8.76;81.10
55675;BME280;41562;44.330;23.802;2023-04-05T11:51:41;99963.72;;;8.91;90.97
55675;BME280;41562;44.330;23.802;2023-04-05T11:54:09;99964.50;;;8.76;88.17
55675;BME280;41562;44.330;23.802;2023-04-05T11:56:37;99973.00;;;8.68;82.26
55675;BME280;41562;44.330;23.802;2023-04-05T11:59:04;99960.75;;;8.57;79.10
55675;BME280;41562;44.330;23.802;2023-04-05T12:01:31;99955.69;;;8.86;84.58
55675;BME280;41562;44.330;23.802;2023-04-05T12:03:59;99954.63;;;8.82;83.32
55675;BME280;41562;44.330;23.802;2023-04-05T12:06:26;99963.16;;;8.99;87.90
55675;BME280;41562;44.330;23.802;2023-04-05T12:08:53;99959.16;;;8.81;81.91
55675;BME280;41562;44.330;23.802;2023-04-05T12:11:25;99954.63;;;9.12;83.97
55675;BME280;41562;44.330;23.802;2023-04-05T12:14:02;99952.75;;;9.28;84.32
55675;BME280;41562;44.330;23.802;2023-04-05T12:16:30;99948.22;;;9.18;80.52
55675;BME280;41562;44.330;23.802;2023-04-05T12:18:59;99963.44;;;8.77;80.61
55675;BME280;41562;44.330;23.802;2023-04-05T12:21:27;99949.56;;;9.01;83.59
55675;BME280;41562;44.330;23.802;2023-04-05T12:23:55;99948.78;;;9.15;84.26
55675;BME280;41562;44.330;23.802;2023-04-05T12:26:22;99953.56;;;8.83;78.14
55675;BME280;41562;44.330;23.802;2023-04-05T12:28:58;99961.56;;;8.78;79.09
55675;BME280;41562;44.330;23.802;2023-04-05T12:31:45;99946.91;;;8.96;82.77
55675;BME280;41562;44.330;23.802;2023-04-05T12:34:23;99948.25;;;9.03;79.28
55675;BME280;41562;44.330;23.802;2023-04-05T12:36:50;99953.03;;;8.96;79.28
55675;BME280;41562;44.330;23.802;2023-04-05T12:39:20;99946.63;;;8.77;80.45
55675;BME280;41562;44.330;23.802;2023-04-05T12:41:59;99934.88;;;8.98;93.26
55675;BME280;41562;44.330;23.802;2023-04-05T12:44:28;99949.84;;;8.84;83.76
55675;BME280;41562;44.330;23.802;2023-04-05T12:47:02;99946.63;;;8.52;82.62
55675;BME280;41562;44.330;23.802;2023-04-05T12:49:35;99941.25;;;8.41;83.01
55675;BME280;41562;44.330;23.802;2023-04-05T12:52:03;99943.44;;;8.60;86.96
55675;BME280;41562;44.330;23.802;2023-04-05T12:54:32;99950.84;;;8.37;82.79
55675;BME280;41562;44.330;23.802;2023-04-05T12:57:00;99948.66;;;8.29;82.28
55675;BME280;41562;44.330;23.802;2023-04-05T12:59:28;99944.13;;;8.25;81.88
55675;BME280;41562;44.330;23.802;2023-04-05T13:01:55;99948.72;;;8.55;87.12
55675;BME280;41562;44.330;23.802;2023-04-05T13:04:25;99942.88;;;8.53;83.75
55675;BME280;41562;44.330;23.802;2023-04-05T13:06:53;99945.25;;;8.44;80.19
55675;BME280;41562;44.330;23.802;2023-04-05T13:09:21;99953.72;;;8.26;81.15
55675;BME280;41562;44.330;23.802;2023-04-05T13:11:49;99950.50;;;8.14;82.43
55675;BME280;41562;44.330;23.802;2023-04-05T13:14:16;99949.25;;;8.36;82.61
55675;BME280;41562;44.330;23.802;2023-04-05T13:16:44;99948.44;;;8.41;82.36
55675;BME280;41562;44.330;23.802;2023-04-05T13:19:11;99955.00;;;8.13;83.12
55675;BME280;41562;44.330;23.802;2023-04-05T13:21:39;99947.84;;;8.19;87.12
55675;BME280;41562;44.330;23.802;2023-04-05T13:24:07;99954.06;;;8.39;83.61
55675;BME280;41562;44.330;23.802;2023-04-05T13:26:38;99970.56;;;8.36;81.77
55675;BME280;41562;44.330;23.802;2023-04-05T13:29:06;99959.84;;;8.21;81.11
55675;BME280;41562;44.330;23.802;2023-04-05T13:31:36;99958.25;;;8.25;82.04
55675;BME280;41562;44.330;23.802;2023-04-05T13:34:04;99963.81;;;8.19;85.60
55675;BME280;41562;44.330;23.802;2023-04-05T13:36:31;99957.09;;;7.96;82.68
55675;BME280;41562;44.330;23.802;2023-04-05T13:38:59;99959.28;;;8.14;82.00
55675;BME280;41562;44.330;23.802;2023-04-05T13:41:26;99960.69;;;7.70;82.67
55675;BME280;41562;44.330;23.802;2023-04-05T13:43:54;99963.94;;;8.79;91.37
55675;BME280;41562;44.330;23.802;2023-04-05T13:46:21;99962.09;;;10.15;74.18
55675;BME280;41562;44.330;23.802;2023-04-05T13:48:48;99966.22;;;9.92;78.29
55675;BME280;41562;44.330;23.802;2023-04-05T13:51:16;99968.47;;;8.74;78.66